createdAt,value
2022-09-13T00:00:42.476Z,99.90
2022-09-13T00:03:10.526Z,99.90
2022-09-13T00:05:38.538Z,99.90
2022-09-13T00:08:06.428Z,99.90
2022-09-13T00:10:38.376Z,99.90
2022-09-13T00:13:07.609Z,99.90
2022-09-13T00:15:35.536Z,99.90
2022-09-13T00:18:02.381Z,99.90
2022-09-13T00:20:30.154Z,99.90
2022-09-13T00:22:56.975Z,99.90
2022-09-13T00:25:23.820Z,99.90
2022-09-13T00:27:50.654Z,99.90
2022-09-13T00:30:17.525Z,99.90
2022-09-13T00:32:45.262Z,99.90
2022-09-13T00:35:12.016Z,99.90
2022-09-13T00:37:38.966Z,99.90
2022-09-13T00:40:06.772Z,99.90
2022-09-13T00:42:33.774Z,99.90
2022-09-13T00:45:01.939Z,99.90
2022-09-13T00:47:32.559Z,99.90
2022-09-13T00:50:22.962Z,99.90
2022-09-13T00:52:57.576Z,99.90
2022-09-13T00:55:28.220Z,99.90
2022-09-13T00:57:58.944Z,99.90
2022-09-13T01:00:25.911Z,99.90
2022-09-13T01:02:57.881Z,99.90
2022-09-13T01:05:32.060Z,99.90
2022-09-13T01:08:00.263Z,99.90
2022-09-13T01:10:28.126Z,99.90
2022-09-13T01:13:05.704Z,99.90
2022-09-13T01:15:32.443Z,99.90
2022-09-13T01:17:59.386Z,99.90
2022-09-13T01:20:43.249Z,99.90
2022-09-13T01:23:38.957Z,99.90
2022-09-13T01:26:34.485Z,99.90
2022-09-13T01:29:23.729Z,99.90
2022-09-13T01:31:59.435Z,99.90
2022-09-13T01:35:03.071Z,99.90
2022-09-13T01:38:01.974Z,99.90
2022-09-13T01:41:10.785Z,99.90
2022-09-13T01:43:40.211Z,99.90
2022-09-13T01:46:15.151Z,99.90
2022-09-13T01:49:12.075Z,99.90
2022-09-13T01:51:56.635Z,99.90
2022-09-13T01:54:57.263Z,99.90
2022-09-13T01:57:36.803Z,99.90
2022-09-13T02:00:15.830Z,99.90
2022-09-13T02:03:04.486Z,99.90
2022-09-13T02:05:44.945Z,99.90
2022-09-13T02:08:56.329Z,99.90
2022-09-13T02:11:24.297Z,99.90
2022-09-13T02:14:12.539Z,99.90
2022-09-13T02:17:04.461Z,99.90
2022-09-13T02:19:57.029Z,99.90
2022-09-13T02:22:31.123Z,99.90
2022-09-13T02:25:06.736Z,99.90
2022-09-13T02:27:35.382Z,99.90
2022-09-13T02:30:06.923Z,99.90
2022-09-13T02:32:57.003Z,99.90
2022-09-13T02:35:38.684Z,99.90
2022-09-13T02:38:10.340Z,99.90
2022-09-13T02:40:45.796Z,99.90
2022-09-13T02:43:21.766Z,99.90
2022-09-13T02:46:14.588Z,99.90
2022-09-13T02:48:54.349Z,99.90
2022-09-13T02:51:49.230Z,99.90
2022-09-13T02:54:33.830Z,99.90
2022-09-13T02:57:29.715Z,99.90
2022-09-13T02:59:56.602Z,99.90
2022-09-13T03:02:27.718Z,99.90
2022-09-13T03:04:54.542Z,99.90
2022-09-13T03:07:21.308Z,99.90
2022-09-13T03:09:55.700Z,99.90
2022-09-13T03:12:41.168Z,99.90
2022-09-13T03:15:20.711Z,99.90
2022-09-13T03:18:07.213Z,99.90
2022-09-13T03:20:50.871Z,99.90
2022-09-13T03:23:45.567Z,99.90
2022-09-13T03:26:39.944Z,99.90
2022-09-13T03:29:34.066Z,99.90
2022-09-13T03:32:26.156Z,99.90
2022-09-13T03:35:29.955Z,99.90
2022-09-13T03:38:08.157Z,99.90
2022-09-13T03:40:45.242Z,99.90
2022-09-13T03:43:28.987Z,99.90
2022-09-13T03:46:02.443Z,99.90
2022-09-13T03:48:30.190Z,99.90
2022-09-13T03:50:57.181Z,99.90
2022-09-13T03:53:27.124Z,99.90
2022-09-13T03:55:54.146Z,99.90
2022-09-13T03:58:22.546Z,99.90
2022-09-13T04:00:49.542Z,99.90
2022-09-13T04:03:16.413Z,99.90
2022-09-13T04:05:43.165Z,99.90
2022-09-13T04:08:09.890Z,99.90
2022-09-13T04:10:37.147Z,99.90
2022-09-13T04:13:04.703Z,99.90
2022-09-13T04:15:31.458Z,99.90
2022-09-13T04:17:58.507Z,99.90
2022-09-13T04:20:25.357Z,99.90
2022-09-13T04:22:53.333Z,99.90
2022-09-13T04:25:21.429Z,99.90
2022-09-13T04:27:57.849Z,99.90
2022-09-13T04:30:24.568Z,99.90
2022-09-13T04:32:51.615Z,99.90
2022-09-13T04:35:18.763Z,99.90
2022-09-13T04:37:46.121Z,99.90
2022-09-13T04:40:13.345Z,99.90
2022-09-13T04:42:40.316Z,99.90
2022-09-13T04:45:07.578Z,99.90
2022-09-13T04:47:34.608Z,99.90
2022-09-13T04:50:01.459Z,99.90
2022-09-13T04:52:28.298Z,99.90
2022-09-13T04:54:55.090Z,99.90
2022-09-13T04:57:21.805Z,99.90
2022-09-13T04:59:48.639Z,99.90
2022-09-13T05:02:15.405Z,99.90
2022-09-13T05:04:42.322Z,99.90
2022-09-13T05:07:09.280Z,99.90
2022-09-13T05:09:36.088Z,99.90
2022-09-13T05:12:03.230Z,99.90
2022-09-13T05:14:29.881Z,99.90
2022-09-13T05:16:56.625Z,99.90
2022-09-13T05:19:23.352Z,99.90
2022-09-13T05:21:50.185Z,99.90
2022-09-13T05:24:16.937Z,99.90
2022-09-13T05:26:43.666Z,99.90
2022-09-13T05:29:10.404Z,99.90
2022-09-13T05:31:40.181Z,99.90
2022-09-13T05:34:10.274Z,99.90
2022-09-13T05:36:37.796Z,99.90
2022-09-13T05:39:31.906Z,99.90
2022-09-13T05:41:52.015Z,99.90
2022-09-13T05:44:18.724Z,99.90
2022-09-13T05:46:48.726Z,99.90
2022-09-13T05:49:15.581Z,99.90
2022-09-13T05:51:42.284Z,99.90
2022-09-13T05:54:12.244Z,99.90
2022-09-13T05:56:39.189Z,99.90
2022-09-13T05:59:05.986Z,99.90
2022-09-13T06:01:32.898Z,99.90
2022-09-13T06:03:59.918Z,99.90
2022-09-13T06:06:27.150Z,99.90
2022-09-13T06:08:55.412Z,99.90
2022-09-13T06:11:23.075Z,99.90
2022-09-13T06:13:50.748Z,99.90
2022-09-13T06:16:17.921Z,99.90
2022-09-13T06:18:45.368Z,99.90
2022-09-13T06:21:18.273Z,99.90
2022-09-13T06:23:46.587Z,99.90
2022-09-13T06:26:15.635Z,99.90
2022-09-13T06:28:42.984Z,99.90
2022-09-13T06:31:15.017Z,99.90
2022-09-13T06:33:43.214Z,99.90
2022-09-13T06:36:14.272Z,99.90
2022-09-13T06:38:41.283Z,99.90
2022-09-13T06:41:13.144Z,99.90
2022-09-13T06:43:40.573Z,99.90
2022-09-13T06:46:09.905Z,99.90
2022-09-13T06:48:41.630Z,99.90
2022-09-13T06:51:11.582Z,99.90
2022-09-13T06:53:39.611Z,99.90
2022-09-13T06:56:10.657Z,99.90
2022-09-13T06:58:38.581Z,99.90
2022-09-13T07:01:06.723Z,99.90
2022-09-13T07:03:33.531Z,99.90
2022-09-13T07:06:00.199Z,99.90
2022-09-13T07:08:26.912Z,99.90
2022-09-13T07:10:57.751Z,99.90
2022-09-13T07:13:24.436Z,99.90
2022-09-13T07:15:51.213Z,99.90
2022-09-13T07:18:17.974Z,99.90
2022-09-13T07:20:44.716Z,99.90
2022-09-13T07:23:15.161Z,99.90
2022-09-13T07:25:42.095Z,99.90
2022-09-13T07:28:08.814Z,99.90
2022-09-13T07:30:35.432Z,99.90
2022-09-13T07:33:02.104Z,99.90
2022-09-13T07:35:29.010Z,99.90
2022-09-13T07:37:55.670Z,99.90
2022-09-13T07:40:22.446Z,99.90
2022-09-13T07:42:49.127Z,99.90
2022-09-13T07:45:15.938Z,99.90
2022-09-13T07:47:42.631Z,99.90
2022-09-13T07:50:09.991Z,99.90
2022-09-13T07:52:36.718Z,99.90
2022-09-13T07:55:04.004Z,99.90
2022-09-13T07:57:30.652Z,99.90
2022-09-13T07:59:57.429Z,99.90
2022-09-13T08:02:24.249Z,99.90
2022-09-13T08:04:51.013Z,99.90
2022-09-13T08:07:17.713Z,99.90
2022-09-13T08:09:44.412Z,99.90
2022-09-13T08:12:11.104Z,99.90
2022-09-13T08:14:37.779Z,99.90
2022-09-13T08:17:04.525Z,99.90
2022-09-13T08:19:31.189Z,99.90
2022-09-13T08:21:57.928Z,99.90
2022-09-13T08:24:24.734Z,99.90
2022-09-13T08:26:54.531Z,99.90
2022-09-13T08:29:21.292Z,99.90
2022-09-13T08:31:48.068Z,99.90
2022-09-13T08:34:17.592Z,99.90
2022-09-13T08:36:44.695Z,99.90
2022-09-13T08:39:12.325Z,99.90
2022-09-13T08:41:41.749Z,99.90
2022-09-13T08:44:23.349Z,99.90
2022-09-13T08:46:50.700Z,99.90
2022-09-13T08:49:40.445Z,99.90
2022-09-13T08:52:29.855Z,99.90
2022-09-13T08:54:58.548Z,99.90
2022-09-13T08:57:42.166Z,99.90
2022-09-13T09:00:21.948Z,99.90
2022-09-13T09:03:26.017Z,99.90
2022-09-13T09:05:52.853Z,99.90
2022-09-13T09:08:28.921Z,99.90
2022-09-13T09:10:58.334Z,99.90
2022-09-13T09:14:03.770Z,99.90
2022-09-13T09:16:38.033Z,99.90
2022-09-13T09:19:14.547Z,99.90
2022-09-13T09:21:42.921Z,99.90
2022-09-13T09:24:22.996Z,99.90
2022-09-13T09:26:50.048Z,99.90
2022-09-13T09:29:37.756Z,99.90
2022-09-13T09:32:35.228Z,99.90
2022-09-13T09:35:35.982Z,99.90
2022-09-13T09:38:11.507Z,99.90
2022-09-13T09:40:38.427Z,99.90
2022-09-13T09:43:22.251Z,99.90
2022-09-13T09:45:50.338Z,99.90
2022-09-13T09:48:22.261Z,99.90
2022-09-13T09:50:52.963Z,99.90
2022-09-13T09:53:28.158Z,99.90
2022-09-13T09:56:11.958Z,99.90
2022-09-13T09:58:50.248Z,99.90
2022-09-13T10:01:31.934Z,99.90
2022-09-13T10:04:03.034Z,99.90
2022-09-13T10:06:30.941Z,99.90
2022-09-13T10:08:59.828Z,99.90
2022-09-13T10:11:59.848Z,99.90
2022-09-13T10:14:34.324Z,99.90
2022-09-13T10:17:25.682Z,99.90
2022-09-13T10:19:58.258Z,99.90
2022-09-13T10:22:26.444Z,99.90
2022-09-13T10:24:53.467Z,99.90
2022-09-13T10:27:34.719Z,99.90
2022-09-13T10:30:03.467Z,99.90
2022-09-13T10:32:31.208Z,99.90
2022-09-13T10:35:15.619Z,99.90
2022-09-13T10:37:44.232Z,99.90
2022-09-13T10:40:19.766Z,99.90
2022-09-13T10:42:58.733Z,99.90
2022-09-13T10:45:28.826Z,99.90
2022-09-13T10:48:06.327Z,99.90
2022-09-13T10:50:33.093Z,99.90
2022-09-13T10:53:01.228Z,99.90
2022-09-13T10:55:33.030Z,99.90
2022-09-13T10:58:02.625Z,99.90
2022-09-13T11:00:39.577Z,99.90
2022-09-13T11:03:32.551Z,99.90
2022-09-13T11:06:30.293Z,99.90
2022-09-13T11:09:12.190Z,99.90
2022-09-13T11:11:52.957Z,99.90
2022-09-13T11:14:22.582Z,99.90
2022-09-13T11:16:52.051Z,99.90
2022-09-13T11:19:36.535Z,99.90
2022-09-13T11:22:40.644Z,99.90
2022-09-13T11:25:30.016Z,99.90
2022-09-13T11:28:08.346Z,99.90
2022-09-13T11:30:58.526Z,99.90
2022-09-13T11:33:44.608Z,99.90
2022-09-13T11:36:37.770Z,99.90
2022-09-13T11:39:36.959Z,99.90
2022-09-13T11:42:17.762Z,99.90
2022-09-13T11:45:08.918Z,99.90
2022-09-13T11:48:12.420Z,99.90
2022-09-13T11:51:07.705Z,99.90
2022-09-13T11:53:46.272Z,99.90
2022-09-13T11:56:29.382Z,99.90
2022-09-13T11:59:22.501Z,99.90
2022-09-13T12:02:00.300Z,99.90
2022-09-13T12:05:18.373Z,99.90
2022-09-13T12:07:49.799Z,99.90
2022-09-13T12:10:25.196Z,98.60
2022-09-13T12:12:53.253Z,98.90
2022-09-13T12:15:36.232Z,99.50
2022-09-13T12:18:15.096Z,99.00
2022-09-13T12:21:03.292Z,99.80
2022-09-13T12:23:43.343Z,99.90
2022-09-13T12:26:20.832Z,99.20
2022-09-13T12:29:01.518Z,99.10
2022-09-13T12:31:31.294Z,97.60
2022-09-13T12:33:59.333Z,98.70
2022-09-13T12:37:03.335Z,98.30
2022-09-13T12:39:51.773Z,99.40
2022-09-13T12:42:34.764Z,97.50
2022-09-13T12:45:29.270Z,97.30
2022-09-13T12:48:23.949Z,93.90
2022-09-13T12:50:56.718Z,94.40
2022-09-13T12:53:49.559Z,94.50
2022-09-13T12:56:16.271Z,94.00
2022-09-13T12:59:01.019Z,94.50
2022-09-13T13:01:30.180Z,94.10
2022-09-13T13:04:02.851Z,94.40
2022-09-13T13:06:41.160Z,93.40
2022-09-13T13:09:28.489Z,94.30
2022-09-13T13:11:56.976Z,93.60
2022-09-13T13:14:38.599Z,93.20
2022-09-13T13:17:44.147Z,91.20
2022-09-13T13:20:38.787Z,91.30
2022-09-13T13:23:27.290Z,90.30
2022-09-13T13:26:05.900Z,90.90
2022-09-13T13:29:20.409Z,90.80
2022-09-13T13:32:09.228Z,90.80
2022-09-13T13:34:48.669Z,89.60
2022-09-13T13:37:15.353Z,90.40
2022-09-13T13:39:47.582Z,89.80
2022-09-13T13:42:28.177Z,88.00
2022-09-13T13:44:54.877Z,87.20
2022-09-13T13:47:21.547Z,88.20
2022-09-13T13:50:15.015Z,87.50
2022-09-13T13:52:47.812Z,87.00
2022-09-13T13:55:41.211Z,88.40
2022-09-13T13:58:07.848Z,84.60
2022-09-13T14:00:36.737Z,86.10
2022-09-13T14:03:23.759Z,86.00
2022-09-13T14:05:57.714Z,87.30
2022-09-13T14:08:55.224Z,90.40
2022-09-13T14:11:59.849Z,90.40
2022-09-13T14:14:46.210Z,90.20
2022-09-13T14:17:24.946Z,90.20
2022-09-13T14:19:54.788Z,91.20
2022-09-13T14:22:26.296Z,91.80
2022-09-13T14:24:58.671Z,92.00
2022-09-13T14:27:33.941Z,90.40
2022-09-13T14:30:25.673Z,90.40
2022-09-13T14:32:57.433Z,90.60
2022-09-13T14:35:30.005Z,92.20
2022-09-13T14:38:10.275Z,90.80
2022-09-13T14:40:37.327Z,91.60
2022-09-13T14:43:15.670Z,91.20
2022-09-13T14:45:45.147Z,91.40
2022-09-13T14:48:36.699Z,87.50
2022-09-13T14:51:16.705Z,87.00
2022-09-13T14:53:45.639Z,86.50
2022-09-13T14:56:24.465Z,84.90
2022-09-13T14:58:55.909Z,91.10
2022-09-13T15:01:31.631Z,92.20
2022-09-13T15:04:00.094Z,92.60
2022-09-13T15:06:33.283Z,92.70
2022-09-13T15:09:10.506Z,93.10
2022-09-13T15:11:53.960Z,93.70
2022-09-13T15:14:46.740Z,93.70
2022-09-13T15:17:14.186Z,93.80
2022-09-13T15:19:51.155Z,94.00
2022-09-13T15:22:34.399Z,94.00
2022-09-13T15:25:02.696Z,94.20
2022-09-13T15:27:43.421Z,93.70
2022-09-13T15:30:31.227Z,93.70
2022-09-13T15:33:24.336Z,93.80
2022-09-13T15:35:52.199Z,93.90
2022-09-13T15:38:30.871Z,94.50
2022-09-13T15:41:18.143Z,94.90
2022-09-13T15:43:47.865Z,94.70
2022-09-13T15:46:16.660Z,96.40
2022-09-13T15:48:59.410Z,97.30
2022-09-13T15:51:26.500Z,98.60
2022-09-13T15:53:54.426Z,99.30
2022-09-13T15:56:35.235Z,98.70
2022-09-13T15:59:01.919Z,97.70
2022-09-13T16:01:28.757Z,99.70
2022-09-13T16:03:55.497Z,99.90
2022-09-13T16:06:24.685Z,99.90
2022-09-13T16:08:51.598Z,99.90
2022-09-13T16:11:18.273Z,99.90
2022-09-13T16:13:44.979Z,99.90
2022-09-13T16:16:14.019Z,99.90
2022-09-13T16:18:40.876Z,99.90
2022-09-13T16:21:07.554Z,99.90
2022-09-13T16:23:34.398Z,99.90
2022-09-13T16:26:01.580Z,99.90
2022-09-13T16:28:28.525Z,99.90
2022-09-13T16:30:55.273Z,99.90
2022-09-13T16:33:22.271Z,99.90
2022-09-13T16:35:49.047Z,99.90
2022-09-13T16:38:15.793Z,99.90
2022-09-13T16:40:44.083Z,99.90
2022-09-13T16:43:10.905Z,99.90
2022-09-13T16:45:42.145Z,99.90
2022-09-13T16:48:09.150Z,99.90
2022-09-13T16:50:39.270Z,99.90
2022-09-13T16:53:06.055Z,99.90
2022-09-13T16:55:32.791Z,99.90
2022-09-13T16:57:59.691Z,99.90
2022-09-13T17:00:26.378Z,99.90
2022-09-13T17:02:53.304Z,99.90
2022-09-13T17:05:20.155Z,99.90
2022-09-13T17:07:46.896Z,99.90
2022-09-13T17:10:13.695Z,99.90
2022-09-13T17:12:40.850Z,99.90
2022-09-13T17:15:08.101Z,99.90
2022-09-13T17:17:34.994Z,99.90
2022-09-13T17:20:04.787Z,99.90
2022-09-13T17:22:31.540Z,99.90
2022-09-13T17:24:58.245Z,99.90
2022-09-13T17:27:25.004Z,99.90
2022-09-13T17:29:51.750Z,99.90
2022-09-13T17:32:18.484Z,99.90
2022-09-13T17:34:45.329Z,99.90
2022-09-13T17:37:12.134Z,99.90
2022-09-13T17:39:38.916Z,99.90
2022-09-13T17:42:05.862Z,99.90
2022-09-13T17:44:32.603Z,99.90
2022-09-13T17:46:59.345Z,99.90
2022-09-13T17:49:26.112Z,99.90
2022-09-13T17:51:52.832Z,99.90
2022-09-13T17:54:19.660Z,99.90
2022-09-13T17:56:46.379Z,99.90
2022-09-13T17:59:18.730Z,99.90
2022-09-13T18:01:51.312Z,99.90
2022-09-13T18:04:20.938Z,99.90
2022-09-13T18:06:48.363Z,99.90
2022-09-13T18:09:15.921Z,99.90
2022-09-13T18:11:43.100Z,99.90
2022-09-13T18:14:17.340Z,99.90
2022-09-13T18:16:44.502Z,99.90
2022-09-13T18:19:11.714Z,99.90
2022-09-13T18:21:38.728Z,99.90
2022-09-13T18:24:05.705Z,99.90
2022-09-13T18:26:32.954Z,99.90
2022-09-13T18:29:09.629Z,99.90
2022-09-13T18:31:37.232Z,99.90
2022-09-13T18:34:06.904Z,99.90
2022-09-13T18:36:34.459Z,99.90
2022-09-13T18:39:01.729Z,99.90
2022-09-13T18:41:38.492Z,99.90
2022-09-13T18:44:05.225Z,99.90
2022-09-13T18:46:33.785Z,99.90
2022-09-13T18:49:01.394Z,99.90
2022-09-13T18:51:30.684Z,99.90
2022-09-13T18:53:58.621Z,99.90
2022-09-13T18:56:26.664Z,99.90
2022-09-13T18:58:54.857Z,99.90
2022-09-13T19:01:33.323Z,99.90
2022-09-13T19:04:03.160Z,99.90
2022-09-13T19:06:36.053Z,99.90
2022-09-13T19:09:04.219Z,99.90
2022-09-13T19:11:57.215Z,99.90
2022-09-13T19:14:26.305Z,99.90
2022-09-13T19:16:55.322Z,99.90
2022-09-13T19:19:22.544Z,99.90
2022-09-13T19:21:49.488Z,99.90
2022-09-13T19:24:19.384Z,99.90
2022-09-13T19:26:49.345Z,99.90
2022-09-13T19:29:19.331Z,99.90
2022-09-13T19:31:47.792Z,99.90
2022-09-13T19:34:15.574Z,99.90
2022-09-13T19:36:42.264Z,99.90
2022-09-13T19:39:09.329Z,99.90
2022-09-13T19:41:37.716Z,99.90
2022-09-13T19:44:05.210Z,99.90
2022-09-13T19:46:34.661Z,99.90
2022-09-13T19:49:02.488Z,99.90
2022-09-13T19:51:34.907Z,99.90
2022-09-13T19:54:01.982Z,99.90
2022-09-13T19:56:31.429Z,99.90
2022-09-13T19:58:58.909Z,99.90
2022-09-13T20:01:28.317Z,99.90
2022-09-13T20:04:00.790Z,99.90
2022-09-13T20:06:29.312Z,99.90
2022-09-13T20:09:00.673Z,99.90
2022-09-13T20:11:27.996Z,99.90
2022-09-13T20:13:58.458Z,99.90
2022-09-13T20:16:28.333Z,99.90
2022-09-13T20:18:58.655Z,99.90
2022-09-13T20:21:27.450Z,99.90
2022-09-13T20:23:56.443Z,99.90
2022-09-13T20:26:25.411Z,99.90
2022-09-13T20:28:57.809Z,99.90
2022-09-13T20:31:24.807Z,99.90
2022-09-13T20:33:58.484Z,99.90
2022-09-13T20:36:27.601Z,99.90
2022-09-13T20:38:55.223Z,99.90
2022-09-13T20:41:25.202Z,99.90
2022-09-13T20:43:52.888Z,99.90
2022-09-13T20:46:21.522Z,99.90
2022-09-13T20:48:48.998Z,99.90
2022-09-13T20:51:17.910Z,99.90
2022-09-13T20:53:47.525Z,99.90
2022-09-13T20:56:17.452Z,99.90
2022-09-13T20:58:45.819Z,99.90
2022-09-13T21:01:18.438Z,99.90
2022-09-13T21:03:45.647Z,99.90
2022-09-13T21:06:14.909Z,99.90
2022-09-13T21:08:42.396Z,99.90
2022-09-13T21:11:18.252Z,99.90
2022-09-13T21:13:48.342Z,99.90
2022-09-13T21:16:18.222Z,99.90
2022-09-13T21:18:45.647Z,99.90
2022-09-13T21:21:29.479Z,99.90
2022-09-13T21:23:56.830Z,99.90
2022-09-13T21:26:26.018Z,99.90
2022-09-13T21:28:53.309Z,99.90
2022-09-13T21:31:25.450Z,99.90
2022-09-13T21:34:01.828Z,99.90
2022-09-13T21:36:29.567Z,99.90
2022-09-13T21:38:59.391Z,99.90
2022-09-13T21:41:27.453Z,99.90
2022-09-13T21:43:54.711Z,99.90
2022-09-13T21:46:23.944Z,99.90
2022-09-13T21:48:54.258Z,99.90
2022-09-13T21:51:30.985Z,99.90
2022-09-13T21:53:59.908Z,99.90
2022-09-13T21:56:30.117Z,99.90
2022-09-13T21:59:01.930Z,99.90
2022-09-13T22:01:37.071Z,99.90
2022-09-13T22:04:04.072Z,99.90
2022-09-13T22:06:34.057Z,99.90
2022-09-13T22:09:05.015Z,99.90
2022-09-13T22:11:34.214Z,99.90
2022-09-13T22:14:01.464Z,99.90
2022-09-13T22:16:34.072Z,99.90
2022-09-13T22:19:12.560Z,99.90
2022-09-13T22:21:43.278Z,99.90
2022-09-13T22:24:18.021Z,99.90
2022-09-13T22:26:48.531Z,99.90
2022-09-13T22:29:16.320Z,99.90
2022-09-13T22:31:45.903Z,99.90
2022-09-13T22:34:15.843Z,99.90
2022-09-13T22:36:42.787Z,99.90
2022-09-13T22:39:14.860Z,99.90
2022-09-13T22:41:41.783Z,99.90
2022-09-13T22:44:08.929Z,99.90
2022-09-13T22:46:39.066Z,99.90
2022-09-13T22:49:06.681Z,99.90
2022-09-13T22:51:33.849Z,99.90
2022-09-13T22:54:06.231Z,99.90
2022-09-13T22:56:35.632Z,99.90
2022-09-13T22:59:06.061Z,99.90
2022-09-13T23:01:36.985Z,99.90
2022-09-13T23:04:04.227Z,99.90
2022-09-13T23:06:32.697Z,99.90
2022-09-13T23:09:01.797Z,99.90
2022-09-13T23:11:34.219Z,99.90
2022-09-13T23:14:03.915Z,99.90
2022-09-13T23:16:43.402Z,99.90
2022-09-13T23:19:11.685Z,99.90
2022-09-13T23:21:41.914Z,99.90
2022-09-13T23:24:16.060Z,99.90
2022-09-13T23:26:43.688Z,99.90
2022-09-13T23:29:16.376Z,99.90
2022-09-13T23:31:43.823Z,99.90
2022-09-13T23:34:12.107Z,99.90
2022-09-13T23:36:42.653Z,99.90
2022-09-13T23:39:13.418Z,99.90
2022-09-13T23:41:40.325Z,99.90
2022-09-13T23:44:07.141Z,99.90
2022-09-13T23:46:34.284Z,99.90
2022-09-13T23:49:01.241Z,99.90
2022-09-13T23:51:28.491Z,99.90
2022-09-13T23:53:57.082Z,99.90
2022-09-13T23:56:29.536Z,99.90
2022-09-13T23:59:01.122Z,99.90
